Time;durP1;ratioP1;P1;durP2;ratioP2;P2;SDS_P1;SDS_P2;PMS_P1;PMS_P2;Temp;Humidity;BMP_temperature;BMP_pressure;BME280_temperature;BME280_humidity;BME280_pressure;Samples;Min_cycle;Max_cycle;Signal;HPM_P1;HPM_P2
2022/11/06 00:00:04;;;;;;;8.80;4.65;;;;;;;14.28;66.55;101397.91;5012312;28;20037;-45
2022/11/06 00:02:30;;;;;;;12.70;5.13;;;;;;;14.38;66.42;101391.91;5012851;28;20041;-43
2022/11/06 00:06:46;;;;;;;9.27;4.70;;;;;;;14.46;66.25;101392.81;5012601;28;20018;-44
2022/11/06 00:07:44;;;;;;;11.95;4.90;;;;;;;14.31;66.82;101372.59;5012513;28;20044;-45
2022/11/06 00:10:09;;;;;;;11.52;5.10;;;;;;;14.26;66.87;101363.84;5012545;28;20025;-45
2022/11/06 00:12:34;;;;;;;10.18;5.07;;;;;;;14.05;68.07;101361.06;5012410;28;20405;-46
2022/11/06 00:15:00;;;;;;;9.68;4.93;;;;;;;14.29;67.22;101365.59;5012251;28;20062;-46
2022/11/06 00:17:25;;;;;;;9.43;4.93;;;;;;;14.25;67.36;101354.22;5013054;28;20046;-47
2022/11/06 00:19:50;;;;;;;9.30;4.97;;;;;;;14.28;67.25;101354.22;5012508;28;20449;-46
2022/11/06 00:22:16;;;;;;;12.32;5.13;;;;;;;14.27;67.07;101359.47;5012204;28;20022;-46
2022/11/06 00:24:41;;;;;;;11.65;5.40;;;;;;;14.28;67.09;101356.84;5012303;28;20125;-46
2022/11/06 00:27:06;;;;;;;13.13;5.07;;;;;;;14.45;66.51;101360.50;5012435;28;20092;-45
2022/11/06 00:29:31;;;;;;;9.57;4.90;;;;;;;14.30;67.25;101359.47;5012475;28;20026;-45
2022/11/06 00:31:57;;;;;;;9.60;4.93;;;;;;;14.46;66.74;101351.72;5012383;28;20100;-43
2022/11/06 00:34:22;;;;;;;12.88;5.15;;;;;;;14.44;66.89;101363.09;5012339;28;20431;-44
2022/11/06 00:36:47;;;;;;;10.48;5.18;;;;;;;14.40;67.16;101359.56;5012568;28;20040;-45
2022/11/06 00:39:12;;;;;;;11.63;5.20;;;;;;;14.45;67.32;101368.38;5012647;28;20017;-44
2022/11/06 00:41:38;;;;;;;12.70;5.00;;;;;;;14.60;66.96;101350.06;5011794;28;20458;-44
2022/11/06 00:44:03;;;;;;;11.23;5.20;;;;;;;14.26;68.07;101362.97;5011749;28;20032;-44
2022/11/06 00:46:29;;;;;;;12.25;5.20;;;;;;;14.21;68.51;101360.28;5012206;28;20029;-47
2022/11/06 00:48:55;;;;;;;13.02;5.60;;;;;;;14.29;68.27;101366.47;5012373;28;20028;-47
2022/11/06 00:51:38;;;;;;;10.88;5.05;;;;;;;14.28;68.49;101355.97;5012112;28;20108;-44
2022/11/06 00:54:06;;;;;;;10.95;4.97;;;;;;;14.39;68.26;101362.19;5011899;28;20056;-47
2022/11/06 00:56:32;;;;;;;10.52;4.90;;;;;;;14.40;68.48;101358.69;5011937;28;20069;-43
2022/11/06 00:58:59;;;;;;;14.48;5.00;;;;;;;14.39;69.00;101367.44;5012292;28;20026;-45
2022/11/06 01:01:27;;;;;;;10.82;5.40;;;;;;;14.23;69.61;101350.69;5012009;28;20101;-44
2022/11/06 01:04:05;;;;;;;12.18;5.43;;;;;;;14.00;70.58;101353.19;5013016;28;20033;-44
2022/11/06 01:06:33;;;;;;;10.95;5.25;;;;;;;14.18;70.27;101355.03;5012362;28;20051;-44
2022/11/06 01:08:59;;;;;;;11.35;5.22;;;;;;;14.15;70.46;101362.88;5012260;28;20529;-45
2022/11/06 01:11:30;;;;;;;11.23;5.38;;;;;;;14.16;70.58;101355.03;5010186;28;20463;-45
2022/11/06 01:13:57;;;;;;;11.23;5.13;;;;;;;14.00;71.59;101358.41;5011677;28;20068;-48
2022/11/06 01:16:24;;;;;;;13.73;5.45;;;;;;;14.13;71.16;101348.91;5012046;28;20041;-48
2022/11/06 01:18:50;;;;;;;10.88;5.50;;;;;;;13.98;71.78;101341.78;5012772;28;20061;-46
2022/11/06 01:21:21;;;;;;;9.82;5.47;;;;;;;13.90;72.40;101342.63;5012304;28;20056;-48
2022/11/06 01:23:55;;;;;;;12.30;5.90;;;;;;;13.82;72.38;101347.78;5011625;28;20148;-46
2022/11/06 01:26:20;;;;;;;12.75;5.70;;;;;;;13.81;72.23;101341.69;5011705;28;20375;-45
2022/11/06 01:28:46;;;;;;;13.32;6.15;;;;;;;13.86;72.17;101335.59;5011254;28;20029;-46
2022/11/06 01:31:16;;;;;;;10.77;5.60;;;;;;;13.69;72.96;101338.97;5011577;28;20033;-46
2022/11/06 01:33:42;;;;;;;13.57;5.63;;;;;;;13.86;72.61;101341.69;5011447;28;20125;-45
2022/11/06 01:36:09;;;;;;;12.95;6.22;;;;;;;14.03;72.00;101344.44;5011544;28;20477;-46
2022/11/06 01:38:34;;;;;;;10.50;5.25;;;;;;;14.04;72.00;101338.31;5011965;28;20033;-47
2022/11/06 01:41:00;;;;;;;15.80;6.13;;;;;;;14.02;72.04;101340.09;5011679;28;20564;-46
2022/11/06 01:43:46;;;;;;;12.18;5.30;;;;;;;13.97;72.22;101329.53;5011726;28;20029;-43
2022/11/06 01:46:11;;;;;;;9.70;5.38;;;;;;;13.75;72.61;101335.50;5012253;28;20025;-45
2022/11/06 01:48:39;;;;;;;10.88;5.30;;;;;;;13.82;72.66;101338.19;5012195;28;20022;-45
2022/11/06 01:51:06;;;;;;;10.57;5.65;;;;;;;13.84;73.04;101337.34;5012309;28;20032;-46
2022/11/06 01:53:32;;;;;;;11.77;5.55;;;;;;;13.94;72.80;101331.28;5012781;28;20025;-49
2022/11/06 01:56:00;;;;;;;13.57;5.43;;;;;;;13.84;73.05;101329.47;5012433;28;20025;-45
2022/11/06 01:58:29;;;;;;;13.50;5.50;;;;;;;13.90;72.82;101330.41;5012939;28;20061;-46
2022/11/06 02:00:54;;;;;;;11.23;5.38;;;;;;;13.79;73.07;101324.16;5012357;28;20109;-46
2022/11/06 02:03:20;;;;;;;14.13;5.80;;;;;;;13.89;73.30;101328.63;5014709;28;20057;-50
2022/11/06 02:05:46;;;;;;;10.18;5.43;;;;;;;13.85;72.98;101332.06;5016782;28;20026;-49
2022/11/06 02:08:14;;;;;;;12.60;5.60;;;;;;;13.76;73.27;101329.41;5013313;28;20022;-46
2022/11/06 02:10:41;;;;;;;11.77;5.50;;;;;;;13.74;73.46;101320.66;5010346;28;20033;-45
2022/11/06 02:13:23;;;;;;;13.32;5.68;;;;;;;13.81;73.09;101320.72;5010128;28;20053;-46
2022/11/06 02:16:25;;;;;;;13.98;5.88;;;;;;;13.76;73.36;101318.94;5010297;28;20427;-44
2022/11/06 02:19:23;;;;;;;11.95;5.18;;;;;;;13.51;74.22;101312.63;5007961;28;20042;-45
2022/11/06 02:22:10;;;;;;;11.80;5.50;;;;;;;13.87;73.34;101305.88;5009806;28;20022;-50
2022/11/06 02:25:03;;;;;;;17.75;5.78;;;;;;;13.88;73.09;101302.41;5010379;28;20506;-45
2022/11/06 02:27:30;;;;;;;12.30;6.30;;;;;;;13.62;73.93;101310.94;5010589;28;20481;-46
2022/11/06 02:30:00;;;;;;;14.85;5.90;;;;;;;13.74;73.25;101311.03;5010193;28;20113;-45
2022/11/06 02:32:40;;;;;;;16.13;6.13;;;;;;;13.49;74.63;101308.22;5010023;28;20513;-46
2022/11/06 02:35:35;;;;;;;14.45;6.05;;;;;;;13.68;73.84;101297.91;5010012;28;20117;-45
2022/11/06 02:38:10;;;;;;;13.80;5.82;;;;;;;13.55;74.52;101308.25;5009902;28;20116;-46
2022/11/06 02:40:42;;;;;;;13.27;6.32;;;;;;;13.67;74.19;101301.38;5009665;28;20026;-45
2022/11/06 02:43:08;;;;;;;14.23;6.55;;;;;;;13.82;73.58;101298.00;5010069;28;20034;-47
2022/11/06 02:46:11;;;;;;;16.50;6.47;;;;;;;13.73;73.72;101297.91;5009899;28;20022;-47
2022/11/06 02:48:41;;;;;;;14.10;6.60;;;;;;;13.81;73.40;101288.38;5010064;28;20061;-46
2022/11/06 02:51:10;;;;;;;16.27;7.07;;;;;;;13.76;73.91;101287.47;5009668;28;20030;-45
2022/11/06 02:53:38;;;;;;;14.93;7.32;;;;;;;13.64;73.94;101277.78;5009914;28;20394;-45
2022/11/06 02:56:10;;;;;;;16.15;7.10;;;;;;;13.75;74.15;101281.34;5009890;28;20041;-46
2022/11/06 02:58:54;;;;;;;17.50;7.80;;;;;;;13.79;73.40;101279.63;5009934;28;20042;-44
2022/11/06 03:01:43;;;;;;;18.08;7.18;;;;;;;13.80;73.65;101290.13;5010092;28;20076;-45
2022/11/06 03:04:26;;;;;;;17.85;7.80;;;;;;;13.73;74.22;101285.69;5010350;28;20393;-44
2022/11/06 03:07:07;;;;;;;16.92;7.65;;;;;;;13.60;74.77;101285.63;5009763;28;20022;-47
2022/11/06 03:09:33;;;;;;;16.33;7.65;;;;;;;13.86;73.54;101278.81;5010342;28;20030;-44
2022/11/06 03:12:36;;;;;;;17.00;7.53;;;;;;;13.58;74.37;101275.13;5009387;28;20076;-44
2022/11/06 03:15:21;;;;;;;16.70;8.00;;;;;;;13.81;73.88;101275.28;5010769;28;20051;-47
2022/11/06 03:17:54;;;;;;;16.65;7.95;;;;;;;13.77;73.67;101256.06;5009564;28;20026;-46
2022/11/06 03:20:26;;;;;;;15.80;7.93;;;;;;;13.81;73.71;101260.44;5009520;28;20030;-48
2022/11/06 03:23:05;;;;;;;20.27;8.35;;;;;;;13.66;74.03;101273.41;5009896;28;20022;-46
2022/11/06 03:25:57;;;;;;;19.17;8.48;;;;;;;13.83;73.87;101268.31;5009567;28;20027;-48
2022/11/06 03:28:33;;;;;;;17.88;8.25;;;;;;;13.71;74.08;101266.50;5008508;28;20026;-45
2022/11/06 03:31:06;;;;;;;21.33;8.77;;;;;;;13.78;73.69;101270.88;5009457;28;20026;-45
2022/11/06 03:33:41;;;;;;;17.55;8.60;;;;;;;13.74;73.75;101261.25;5010359;28;20022;-45
2022/11/06 03:36:25;;;;;;;17.23;8.80;;;;;;;13.97;73.33;101243.03;5013134;28;20013;-44
2022/11/06 03:38:56;;;;;;;14.43;8.65;;;;;;;13.84;73.62;101243.88;5013258;28;20038;-44
2022/11/06 03:41:29;;;;;;;18.13;8.90;;;;;;;13.73;73.51;101250.75;5011474;28;20387;-46
2022/11/06 03:43:58;;;;;;;16.27;9.50;;;;;;;13.86;73.53;101243.84;5013230;28;20457;-47
2022/11/06 03:46:26;;;;;;;15.20;9.20;;;;;;;13.70;74.18;101237.66;5013221;28;20104;-46
2022/11/06 03:48:56;;;;;;;19.17;9.77;;;;;;;13.79;73.83;101235.94;5012848;28;20021;-45
2022/11/06 03:51:32;;;;;;;22.50;10.23;;;;;;;13.68;74.34;101235.00;5012890;28;20026;-47
2022/11/06 03:54:09;;;;;;;17.23;9.82;;;;;;;13.95;73.15;101225.56;5013024;28;20029;-43
2022/11/06 03:56:40;;;;;;;16.63;10.07;;;;;;;13.87;73.38;101215.03;5013275;28;20117;-44
2022/11/06 03:59:08;;;;;;;17.95;9.52;;;;;;;13.75;73.47;101215.84;5013201;28;20105;-45
2022/11/06 04:01:39;;;;;;;16.50;10.07;;;;;;;13.78;73.68;101215.84;5012737;28;20427;-46
2022/11/06 04:04:17;;;;;;;19.90;10.10;;;;;;;13.92;73.26;101215.94;5012986;28;20442;-44
2022/11/06 04:06:54;;;;;;;23.13;9.60;;;;;;;13.81;73.26;101212.38;5012600;28;20038;-45
2022/11/06 04:14:55;;;;;;;14.07;8.82;;;;;;;14.08;72.39;101201.16;5012406;28;20099;-44
2022/11/06 04:17:22;;;;;;;19.05;9.23;;;;;;;13.85;73.23;101195.78;5012217;28;20037;-49
2022/11/06 04:19:51;;;;;;;18.15;8.73;;;;;;;13.78;73.44;101194.88;5012466;28;20033;-44
2022/11/06 04:22:36;;;;;;;16.13;8.30;;;;;;;14.02;72.66;101195.91;5012340;28;20604;-47
2022/11/06 04:28:19;;;;;;;15.93;8.65;;;;;;;14.02;72.09;101190.66;5012595;28;20033;-45
2022/11/06 04:31:10;;;;;;;17.42;8.25;;;;;;;13.66;73.52;101186.97;5011954;28;20467;-46
2022/11/06 04:33:58;;;;;;;16.85;8.20;;;;;;;13.85;72.86;101193.19;5012280;28;20377;-45
2022/11/06 04:36:42;;;;;;;15.63;7.88;;;;;;;13.92;72.47;101194.09;5014634;28;20451;-44
2022/11/06 04:39:21;;;;;;;18.85;8.57;;;;;;;13.89;73.09;101189.72;5014698;28;20069;-44
2022/11/06 04:42:08;;;;;;;13.88;8.18;;;;;;;13.98;72.55;101184.50;5015213;28;20022;-44
2022/11/06 04:44:42;;;;;;;13.35;8.35;;;;;;;13.81;73.33;101184.44;5014876;28;20034;-45
2022/11/06 04:47:15;;;;;;;15.77;8.32;;;;;;;14.04;72.84;101181.03;5013940;28;20025;-49
2022/11/06 04:49:42;;;;;;;16.27;8.40;;;;;;;14.11;72.55;101178.44;5012749;28;20026;-44
2022/11/06 04:52:14;;;;;;;13.43;8.10;;;;;;;14.07;72.67;101170.56;5014839;28;20026;-45
2022/11/06 04:54:40;;;;;;;14.00;8.05;;;;;;;13.84;73.60;101173.09;5013267;28;20101;-47
2022/11/06 04:57:05;;;;;;;12.85;7.63;;;;;;;13.93;73.24;101175.75;5013047;28;20065;-48
2022/11/06 04:59:34;;;;;;;12.98;6.90;;;;;;;14.14;72.71;101177.59;5013840;28;20023;-46
2022/11/06 05:02:00;;;;;;;13.38;6.85;;;;;;;13.75;73.85;101188.75;5013564;28;20029;-50
2022/11/06 05:04:25;;;;;;;14.65;7.20;;;;;;;13.78;74.10;101171.31;5012012;28;20387;-45
2022/11/06 05:06:50;;;;;;;14.20;6.28;;;;;;;13.85;73.89;101166.97;5011691;28;20033;-46
2022/11/06 05:09:15;;;;;;;10.68;6.70;;;;;;;13.90;73.25;101167.91;5011767;28;20014;-47
2022/11/06 05:11:41;;;;;;;12.35;6.43;;;;;;;13.73;74.43;101169.53;5011572;28;20365;-46
2022/11/06 05:14:06;;;;;;;13.55;6.70;;;;;;;13.82;74.00;101160.00;5011510;28;20552;-44
2022/11/06 05:16:32;;;;;;;14.10;6.05;;;;;;;13.63;74.51;101146.78;5011680;28;20030;-45
2022/11/06 05:18:57;;;;;;;10.85;5.72;;;;;;;13.71;74.12;101148.59;5026574;28;20022;-44
2022/11/06 05:24:07;;;;;;;11.27;5.50;;;;;;;13.57;74.40;101138.88;5011615;28;20112;-44
2022/11/06 05:26:32;;;;;;;13.95;5.80;;;;;;;13.75;74.12;101145.09;5011196;28;20021;-45
2022/11/06 05:28:58;;;;;;;11.98;6.20;;;;;;;13.57;75.07;101141.50;5011213;28;20101;-45
2022/11/06 05:31:24;;;;;;;10.90;5.88;;;;;;;13.59;74.08;101137.16;5010916;28;20477;-44
2022/11/06 05:33:50;;;;;;;11.75;5.60;;;;;;;13.83;74.18;101129.41;5011252;28;20141;-45
2022/11/06 05:36:15;;;;;;;10.38;5.72;;;;;;;13.54;74.85;101129.25;5010896;28;20113;-49
2022/11/06 05:38:40;;;;;;;12.55;6.00;;;;;;;13.71;74.42;101127.63;5011023;28;20045;-45
2022/11/06 05:41:06;;;;;;;12.43;5.50;;;;;;;13.85;74.07;101135.53;5010927;28;20068;-46
2022/11/06 05:43:31;;;;;;;12.23;5.38;;;;;;;13.67;74.59;101127.56;5011266;28;20396;-45
2022/11/06 05:45:57;;;;;;;9.68;5.13;;;;;;;13.66;74.53;101118.84;5011009;28;20014;-45
2022/11/06 05:48:22;;;;;;;11.75;4.97;;;;;;;13.82;73.90;101115.44;5010873;28;20029;-43
2022/11/06 05:50:48;;;;;;;8.77;4.70;;;;;;;13.83;73.71;101108.44;5010417;28;20026;-44
2022/11/06 05:53:13;;;;;;;9.80;5.15;;;;;;;13.83;73.47;101108.44;5010611;28;20474;-46
2022/11/06 05:55:38;;;;;;;9.10;5.03;;;;;;;13.66;74.14;101110.13;5010862;28;20029;-46
2022/11/06 05:58:04;;;;;;;9.27;5.15;;;;;;;13.74;73.95;101104.03;5010795;28;20057;-46
2022/11/06 06:00:29;;;;;;;11.18;5.65;;;;;;;13.52;74.88;101099.59;5010624;28;20465;-44
2022/11/06 06:02:54;;;;;;;10.95;5.22;;;;;;;13.68;74.48;101103.13;5011506;28;20462;-44
2022/11/06 06:05:19;;;;;;;9.45;5.10;;;;;;;13.74;74.34;101101.41;5010769;28;20014;-45
2022/11/06 06:07:45;;;;;;;10.88;4.80;;;;;;;13.85;74.01;101104.06;5011084;28;20083;-46
2022/11/06 06:10:10;;;;;;;10.48;5.07;;;;;;;13.65;74.65;101106.63;5010396;28;20022;-44
2022/11/06 06:12:36;;;;;;;8.98;5.15;;;;;;;13.56;74.65;101100.47;5010769;28;20025;-45
2022/11/06 06:15:01;;;;;;;9.88;5.07;;;;;;;13.85;73.91;101104.06;5010412;28;20506;-46
2022/11/06 06:17:26;;;;;;;10.05;5.10;;;;;;;13.84;73.51;101098.84;5010916;28;20036;-46
2022/11/06 06:19:52;;;;;;;11.10;5.18;;;;;;;13.84;73.45;101098.84;5010410;28;20109;-47
2022/11/06 06:22:17;;;;;;;9.70;4.68;;;;;;;13.89;73.54;101089.25;5010375;28;20026;-49
2022/11/06 06:24:42;;;;;;;10.90;5.40;;;;;;;13.69;73.64;101087.44;5010578;28;20189;-44
2022/11/06 06:27:08;;;;;;;12.48;4.55;;;;;;;13.71;73.85;101090.94;5010416;28;20588;-47
2022/11/06 06:29:33;;;;;;;11.60;4.75;;;;;;;13.78;73.49;101089.22;5010714;28;20044;-46
2022/11/06 06:31:59;;;;;;;8.15;4.57;;;;;;;14.10;72.68;101092.78;5009829;28;20033;-47
2022/11/06 06:34:24;;;;;;;10.85;4.90;;;;;;;13.81;73.29;101091.84;5010068;28;20030;-42
2022/11/06 06:36:51;;;;;;;10.95;4.78;;;;;;;14.00;72.94;101092.78;5010417;28;20033;-45
2022/11/06 06:39:18;;;;;;;10.32;4.25;;;;;;;13.96;73.06;101093.66;5010199;28;20419;-46
2022/11/06 06:41:44;;;;;;;11.63;4.53;;;;;;;13.70;73.74;101081.31;5010049;28;20021;-46
2022/11/06 06:44:09;;;;;;;7.82;4.45;;;;;;;13.82;73.49;101068.25;5010203;28;20415;-46
2022/11/06 06:46:34;;;;;;;9.63;3.90;;;;;;;13.73;73.72;101075.19;5010106;28;20030;-46
2022/11/06 06:49:00;;;;;;;7.95;3.92;;;;;;;13.84;73.62;101075.25;5009903;28;20038;-45
2022/11/06 06:51:25;;;;;;;10.30;3.95;;;;;;;13.82;74.00;101067.38;5009650;28;20117;-51
2022/11/06 06:53:50;;;;;;;9.80;3.60;;;;;;;13.72;74.34;101065.63;5025104;28;20025;-46
2022/11/06 06:56:16;;;;;;;9.10;3.33;;;;;;;13.80;73.96;101067.38;5010617;28;20064;-46
2022/11/06 06:58:41;;;;;;;9.90;3.88;;;;;;;13.71;74.32;101063.88;5010045;28;20226;-43
2022/11/06 07:01:09;;;;;;;10.27;3.50;;;;;;;13.90;73.50;101068.28;5011051;28;20057;-44
2022/11/06 07:03:36;;;;;;;9.93;3.20;;;;;;;13.95;73.15;101060.44;5011536;28;20034;-45
2022/11/06 07:06:01;;;;;;;10.23;2.92;;;;;;;14.03;72.76;101070.06;5011799;28;20520;-44
2022/11/06 07:08:28;;;;;;;8.25;2.90;;;;;;;14.06;72.54;101062.22;5011750;28;20025;-44
2022/11/06 07:11:04;;;;;;;6.90;2.50;;;;;;;14.00;72.60;101061.31;5015045;28;20022;-44
2022/11/06 07:13:30;;;;;;;8.27;2.60;;;;;;;13.69;73.08;101050.75;5013621;28;20029;-45
2022/11/06 07:15:55;;;;;;;10.15;3.00;;;;;;;14.05;71.99;101056.97;5013198;28;20034;-45
2022/11/06 07:18:21;;;;;;;8.00;2.75;;;;;;;13.91;72.13;101058.66;5013791;28;20076;-44
2022/11/06 07:20:46;;;;;;;5.85;2.58;;;;;;;14.17;71.32;101063.09;5013729;28;20069;-46
2022/11/06 07:23:11;;;;;;;7.10;2.70;;;;;;;14.18;71.28;101064.84;5013666;28;20355;-47
2022/11/06 07:25:37;;;;;;;7.07;2.50;;;;;;;14.22;70.93;101070.97;5013533;28;20022;-44
2022/11/06 07:28:04;;;;;;;9.88;2.67;;;;;;;14.20;71.05;101071.00;5014247;28;20435;-47
2022/11/06 07:30:32;;;;;;;6.53;2.50;;;;;;;14.26;70.53;101066.63;5013013;28;20032;-46
2022/11/06 07:33:04;;;;;;;7.82;2.83;;;;;;;14.27;70.84;101064.00;5014036;28;20029;-45
2022/11/06 07:35:30;;;;;;;7.82;2.50;;;;;;;14.34;70.46;101055.25;5013823;28;20133;-50
2022/11/06 07:37:55;;;;;;;8.80;2.60;;;;;;;14.16;70.57;101063.97;5013882;28;20113;-45
2022/11/06 07:40:20;;;;;;;7.93;2.50;;;;;;;14.14;70.90;101057.00;5014438;28;20029;-43
2022/11/06 07:42:46;;;;;;;10.10;2.60;;;;;;;14.07;70.66;101048.22;5013926;28;20516;-47
2022/11/06 07:45:11;;;;;;;7.93;2.58;;;;;;;14.48;69.91;101048.31;5013189;28;20421;-45
2022/11/06 07:47:36;;;;;;;6.22;2.60;;;;;;;14.61;69.36;101047.44;5013180;28;20029;-48
2022/11/06 07:50:02;;;;;;;9.07;2.58;;;;;;;14.34;70.06;101046.50;5014165;28;20091;-45
2022/11/06 07:52:27;;;;;;;7.00;2.22;;;;;;;14.39;69.90;101060.56;5013913;28;20029;-49
2022/11/06 07:54:53;;;;;;;7.93;2.60;;;;;;;14.44;69.62;101059.69;5013551;28;20017;-49
2022/11/06 07:57:18;;;;;;;7.60;2.40;;;;;;;14.40;69.45;101065.78;5014193;28;20061;-47
2022/11/06 07:59:44;;;;;;;8.48;2.38;;;;;;;14.42;69.60;101065.78;5012941;28;20032;-46
2022/11/06 08:02:12;;;;;;;5.90;2.25;;;;;;;14.05;70.62;101068.31;5012871;28;20056;-45
2022/11/06 08:04:38;;;;;;;14.93;2.28;;;;;;;14.54;69.38;101071.91;5012741;28;20560;-49
2022/11/06 08:07:04;;;;;;;8.60;2.40;;;;;;;14.41;70.15;101062.28;5012852;28;20017;-46
2022/11/06 08:09:29;;;;;;;7.20;2.33;;;;;;;14.17;71.13;101073.59;5012948;28;20053;-45
2022/11/06 08:11:55;;;;;;;11.82;2.42;;;;;;;14.40;70.68;101068.41;5012729;28;20034;-46
2022/11/06 08:14:20;;;;;;;7.93;2.45;;;;;;;14.20;71.24;101050.00;5012359;28;20033;-45
2022/11/06 08:16:45;;;;;;;8.95;2.20;;;;;;;14.21;71.11;101049.09;5012550;28;20029;-43
2022/11/06 08:19:10;;;;;;;7.53;2.20;;;;;;;14.33;71.06;101053.53;5012048;28;20525;-44
2022/11/06 08:21:36;;;;;;;6.53;2.00;;;;;;;14.34;70.87;101042.13;5012143;28;20120;-45
2022/11/06 08:24:02;;;;;;;10.68;2.38;;;;;;;14.21;71.68;101056.09;5012332;28;20029;-44
2022/11/06 08:26:27;;;;;;;7.75;2.53;;;;;;;14.32;71.23;101049.16;5012438;28;20029;-47
2022/11/06 08:28:53;;;;;;;5.18;2.10;;;;;;;14.01;72.45;101040.38;5012336;28;20022;-47
2022/11/06 08:31:19;;;;;;;6.03;2.10;;;;;;;14.30;72.16;101037.78;5012343;28;20379;-44
2022/11/06 08:33:45;;;;;;;8.10;2.47;;;;;;;14.31;72.26;101034.28;5011983;28;20030;-45
2022/11/06 08:36:11;;;;;;;3.58;2.08;;;;;;;14.36;72.19;101032.53;5012114;28;20386;-44
2022/11/06 08:38:36;;;;;;;8.02;2.20;;;;;;;14.25;72.73;101025.53;5012146;28;20057;-45
2022/11/06 08:41:07;;;;;;;8.95;2.20;;;;;;;14.29;72.63;101015.03;5011738;28;20022;-47
2022/11/06 08:43:33;;;;;;;5.93;2.10;;;;;;;14.30;72.46;101016.78;5011926;28;20033;-46
2022/11/06 08:45:58;;;;;;;5.32;2.10;;;;;;;14.25;72.51;101007.19;5011901;28;20022;-44
2022/11/06 08:48:24;;;;;;;8.25;2.10;;;;;;;14.33;72.48;101008.06;5011909;28;20044;-46
2022/11/06 08:50:49;;;;;;;5.45;2.28;;;;;;;14.36;72.05;100995.81;5012044;28;20328;-46
2022/11/06 08:53:14;;;;;;;7.78;2.20;;;;;;;14.24;73.04;100993.19;5011749;28;20075;-45
2022/11/06 08:55:40;;;;;;;6.47;2.17;;;;;;;14.57;72.25;100997.59;5011657;28;20088;-48
2022/11/06 08:58:06;;;;;;;6.10;2.13;;;;;;;14.64;72.05;100995.84;5011813;28;20038;-45
2022/11/06 09:00:32;;;;;;;8.30;2.30;;;;;;;14.73;71.82;100987.94;5011678;28;20090;-46
2022/11/06 09:02:59;;;;;;;7.82;2.40;;;;;;;14.66;71.86;100994.94;5011415;28;20397;-44
2022/11/06 09:05:25;;;;;;;9.05;2.63;;;;;;;14.81;71.59;100989.69;5011505;28;20029;-47
2022/11/06 09:07:51;;;;;;;6.88;2.13;;;;;;;14.74;71.49;100985.31;5011851;28;20018;-46
2022/11/06 09:10:16;;;;;;;8.45;2.10;;;;;;;14.79;71.40;100988.81;5011471;28;20065;-46
2022/11/06 09:12:42;;;;;;;5.35;2.10;;;;;;;15.04;71.02;100979.13;5012105;28;20072;-47
2022/11/06 09:15:08;;;;;;;6.80;2.15;;;;;;;14.87;71.35;100991.41;5012578;28;20109;-45
2022/11/06 09:17:33;;;;;;;6.65;2.00;;;;;;;15.04;71.20;100992.25;5011777;28;20402;-44
2022/11/06 09:19:59;;;;;;;5.57;2.10;;;;;;;15.13;70.66;100981.69;5011930;28;20626;-44
2022/11/06 09:22:24;;;;;;;6.47;2.20;;;;;;;15.45;70.12;100981.56;5011384;28;20375;-42
2022/11/06 09:24:49;;;;;;;6.18;2.20;;;;;;;15.52;70.01;100975.44;5011674;28;20050;-45
2022/11/06 09:27:14;;;;;;;7.57;2.20;;;;;;;15.30;69.87;100986.91;5011342;28;20025;-46
2022/11/06 09:29:42;;;;;;;8.15;2.17;;;;;;;15.34;69.87;100986.88;5011238;28;20482;-45
2022/11/06 09:32:09;;;;;;;8.35;2.10;;;;;;;15.05;70.76;100983.50;5010113;28;20029;-46
2022/11/06 09:34:34;;;;;;;4.70;1.90;;;;;;;15.32;70.22;100974.63;5011526;28;20128;-44
2022/11/06 09:37:02;;;;;;;6.97;2.47;;;;;;;15.14;70.77;100972.06;5011138;28;20110;-47
2022/11/06 09:39:28;;;;;;;9.93;2.70;;;;;;;15.55;69.37;100958.78;5011010;28;20033;-45
2022/11/06 09:42:06;;;;;;;6.72;2.63;;;;;;;15.62;69.67;100952.59;5011817;28;20637;-44
2022/11/06 09:44:43;;;;;;;8.35;2.33;;;;;;;15.86;69.19;100957.69;5012421;28;20068;-47
2022/11/06 09:47:17;;;;;;;6.10;2.30;;;;;;;15.86;68.91;100968.22;5011506;28;20026;-49
2022/11/06 09:49:52;;;;;;;7.32;2.50;;;;;;;15.98;68.42;100957.59;5011105;28;20069;-48
2022/11/06 09:52:20;;;;;;;;;;;;;;;15.82;67.94;100945.47;5011720;28;20483;-45
2022/11/06 09:54:49;;;;;;;5.95;2.30;;;;;;;15.93;68.05;100941.00;5011817;28;20265;-47
2022/11/06 09:57:20;;;;;;;6.93;2.40;;;;;;;15.57;68.72;100933.34;5012484;28;20036;-46
2022/11/06 09:59:46;;;;;;;6.03;2.10;;;;;;;15.82;68.27;100932.31;5012298;28;20030;-45
2022/11/06 10:02:44;;;;;;;9.25;2.10;;;;;;;15.39;68.87;100935.19;5011544;28;20095;-44
2022/11/06 10:05:26;;;;;;;4.85;2.08;;;;;;;15.65;68.45;100932.44;5009688;28;20376;-43
2022/11/06 10:07:55;;;;;;;9.10;2.28;;;;;;;15.37;68.86;100938.69;5010580;28;20021;-46
2022/11/06 10:10:28;;;;;;;5.53;1.75;;;;;;;15.74;68.19;100940.25;5010644;28;20321;-48
2022/11/06 10:13:20;;;;;;;6.18;1.95;;;;;;;15.74;67.77;100932.38;5010456;28;20049;-45
2022/11/06 10:15:53;;;;;;;5.32;1.95;;;;;;;15.85;67.39;100931.44;5010285;28;20290;-47
2022/11/06 10:18:18;;;;;;;6.60;2.20;;;;;;;15.92;67.23;100931.34;5010556;28;20061;-45
2022/11/06 10:20:50;;;;;;;8.02;2.20;;;;;;;15.96;67.83;100917.31;5010980;28;20068;-45
2022/11/06 10:23:15;;;;;;;9.10;2.28;;;;;;;15.79;68.12;100909.56;5010875;28;20021;-47
2022/11/06 10:25:43;;;;;;;6.25;2.00;;;;;;;15.47;69.35;100919.38;5010735;28;20125;-46
2022/11/06 10:28:21;;;;;;;7.88;2.15;;;;;;;15.59;69.24;100914.09;5011372;28;20112;-46
2022/11/06 10:31:04;;;;;;;5.50;2.35;;;;;;;15.77;69.17;100915.72;5010507;28;20034;-45
2022/11/06 10:33:41;;;;;;;7.80;2.50;;;;;;;15.33;71.04;100915.94;5010503;28;20486;-45
2022/11/06 10:36:14;;;;;;;5.82;2.20;;;;;;;15.46;70.93;100916.75;5010472;28;20060;-46
2022/11/06 10:38:43;;;;;;;6.70;2.13;;;;;;;15.29;71.73;100909.84;5011267;28;20018;-49
2022/11/06 10:41:38;;;;;;;8.50;2.50;;;;;;;15.23;71.96;100895.88;5011764;28;20050;-44
2022/11/06 10:44:26;;;;;;;9.18;2.40;;;;;;;15.30;71.77;100893.22;5001034;28;20042;-46
2022/11/06 10:47:05;;;;;;;7.97;2.38;;;;;;;15.21;72.28;100887.13;5014052;28;20038;-49
2022/11/06 10:50:08;;;;;;;8.88;2.50;;;;;;;15.08;72.50;100885.44;5011267;28;20029;-47
2022/11/06 10:52:46;;;;;;;6.78;2.25;;;;;;;15.19;72.10;100879.25;4996864;28;20038;-46
2022/11/06 10:55:38;;;;;;;7.00;2.28;;;;;;;15.35;71.74;100880.06;5009999;28;20065;-44
2022/11/06 10:58:07;;;;;;;7.80;1.98;;;;;;;15.23;72.12;100870.50;5002722;28;20413;-47
2022/11/06 11:00:33;;;;;;;5.00;2.20;;;;;;;15.23;72.71;100869.63;5009995;28;20057;-46
2022/11/06 11:03:01;;;;;;;4.47;2.00;;;;;;;15.14;72.68;100872.28;5008727;28;20061;-45
2022/11/06 11:05:40;;;;;;;11.77;2.50;;;;;;;15.27;72.21;100866.06;5009889;28;20475;-46
2022/11/06 11:08:34;;;;;;;9.10;2.30;;;;;;;15.11;72.31;100852.19;5010205;28;20029;-47
2022/11/06 11:11:01;;;;;;;7.03;2.05;;;;;;;15.02;72.20;100858.34;5009833;28;20022;-45
2022/11/06 11:13:26;;;;;;;6.47;2.20;;;;;;;14.74;72.87;100858.47;5009968;28;20029;-46
2022/11/06 11:15:52;;;;;;;7.65;2.13;;;;;;;14.63;73.27;100853.28;5009597;28;20037;-44
2022/11/06 11:18:22;;;;;;;6.88;2.13;;;;;;;14.89;72.88;100854.03;5010698;28;20245;-45
2022/11/06 11:20:50;;;;;;;8.80;2.17;;;;;;;15.14;72.05;100853.91;5009558;28;20029;-46
2022/11/06 11:23:23;;;;;;;6.22;2.20;;;;;;;15.05;72.16;100853.97;5009843;28;20057;-45
2022/11/06 11:25:57;;;;;;;6.97;2.20;;;;;;;14.42;74.35;100853.31;5010088;28;20049;-46
2022/11/06 11:28:35;;;;;;;8.63;2.13;;;;;;;14.54;74.64;100853.28;5009983;28;20101;-45
2022/11/06 11:31:10;;;;;;;7.68;2.05;;;;;;;14.77;73.72;100846.19;5009730;28;20022;-46
2022/11/06 11:33:38;;;;;;;6.30;2.30;;;;;;;14.76;73.47;100849.69;5009719;28;20434;-45
2022/11/06 11:36:05;;;;;;;8.02;2.10;;;;;;;15.00;72.61;100844.34;5009688;28;20183;-44
2022/11/06 11:38:34;;;;;;;5.78;1.90;;;;;;;14.53;74.40;100834.03;5009288;28;20072;-46
2022/11/06 11:41:07;;;;;;;7.63;2.00;;;;;;;14.71;73.88;100826.97;5009479;28;20022;-44
2022/11/06 11:43:32;;;;;;;5.82;2.00;;;;;;;14.89;73.21;100809.41;5009665;28;20057;-45
2022/11/06 11:46:03;;;;;;;5.85;1.92;;;;;;;14.82;72.84;100809.47;5009488;28;20425;-44